Time;durP1;ratioP1;P1;durP2;ratioP2;P2;SDS_P1;SDS_P2;PMS_P1;PMS_P2;Temp;Humidity;BMP_temperature;BMP_pressure;BME280_temperature;BME280_humidity;BME280_pressure;Samples;Min_cycle;Max_cycle;Signal;HPM_P1;HPM_P2
2022/03/02 00:01:44;;;;;;;36.73;24.30;;;;;;;;;;5044903;28;20487;-66
2022/03/02 00:04:11;;;;;;;36.77;23.40;;;;;;;;;;5038461;28;20052;-66
2022/03/02 00:06:36;;;;;;;35.97;25.50;;;;;;;;;;5041588;28;20045;-66
2022/03/02 00:09:03;;;;;;;36.07;25.07;;;;;;;;;;5042346;28;20107;-66
2022/03/02 00:11:30;;;;;;;41.10;25.77;;;;;;;;;;5046015;28;20090;-66
2022/03/02 00:13:58;;;;;;;41.67;24.83;;;;;;;;;;5042769;28;20041;-66
2022/03/02 00:16:24;;;;;;;39.67;24.07;;;;;;;;;;5039292;28;20056;-66
2022/03/02 00:18:51;;;;;;;35.70;23.87;;;;;;;;;;5042546;28;20140;-66
2022/03/02 00:21:18;;;;;;;37.83;24.33;;;;;;;;;;5043880;28;20041;-66
2022/03/02 00:23:44;;;;;;;39.47;24.53;;;;;;;;;;5042409;28;20045;-66
2022/03/02 00:26:10;;;;;;;34.70;22.87;;;;;;;;;;5041948;28;20045;-66
2022/03/02 00:28:36;;;;;;;40.57;24.87;;;;;;;;;;5041764;28;20041;-66
2022/03/02 00:31:02;;;;;;;37.33;24.17;;;;;;;;;;5039768;28;20053;-66
2022/03/02 00:33:28;;;;;;;40.13;24.73;;;;;;;;;;5047892;28;20045;-66
2022/03/02 00:35:54;;;;;;;35.67;24.10;;;;;;;;;;5050201;28;20118;-66
2022/03/02 00:38:20;;;;;;;36.83;24.57;;;;;;;;;;5050420;28;20530;-66
2022/03/02 00:40:46;;;;;;;35.07;23.50;;;;;;;;;;5050378;28;20052;-66
2022/03/02 00:43:12;;;;;;;36.17;24.93;;;;;;;;;;5050341;28;20059;-66
2022/03/02 00:45:38;;;;;;;37.40;24.93;;;;;;;;;;5050067;28;20163;-67
2022/03/02 00:48:05;;;;;;;37.27;24.23;;;;;;;;;;5049796;28;20094;-66
2022/03/02 00:50:32;;;;;;;43.27;25.93;;;;;;;;;;5050084;28;20057;-66
2022/03/02 00:52:58;;;;;;;35.43;24.87;;;;;;;;;;5050430;28;20094;-66
2022/03/02 00:55:24;;;;;;;37.77;25.03;;;;;;;;;;5050143;28;20140;-65
2022/03/02 00:57:50;;;;;;;37.17;24.80;;;;;;;;;;5049865;28;20459;-66
2022/03/02 01:00:16;;;;;;;43.27;26.23;;;;;;;;;;5050107;28;20048;-66
2022/03/02 01:02:43;;;;;;;37.83;24.93;;;;;;;;;;5049339;28;20072;-66
2022/03/02 01:05:09;;;;;;;41.87;26.00;;;;;;;;;;5049819;28;20746;-66
2022/03/02 01:07:35;;;;;;;40.73;26.17;;;;;;;;;;5050007;28;20395;-66
2022/03/02 01:10:03;;;;;;;38.83;24.90;;;;;;;;;;5049728;28;20051;-66
2022/03/02 01:12:29;;;;;;;40.97;25.37;;;;;;;;;;5049576;28;20499;-66
2022/03/02 01:14:55;;;;;;;40.03;25.97;;;;;;;;;;5049750;28;20052;-66
2022/03/02 01:17:21;;;;;;;39.50;25.17;;;;;;;;;;5049261;28;20091;-66
2022/03/02 01:19:47;;;;;;;38.80;25.13;;;;;;;;;;5049723;28;20116;-66
2022/03/02 01:22:13;;;;;;;39.53;27.60;;;;;;;;;;5048313;28;20084;-66
2022/03/02 01:24:39;;;;;;;39.57;25.90;;;;;;;;;;5049261;28;20278;-66
2022/03/02 01:27:06;;;;;;;41.40;25.40;;;;;;;;;;5049358;28;20458;-66
2022/03/02 01:29:34;;;;;;;37.33;24.03;;;;;;;;;;5049351;28;20515;-66
2022/03/02 01:32:00;;;;;;;37.73;25.87;;;;;;;;;;5048625;28;20060;-66
2022/03/02 01:34:27;;;;;;;41.47;25.23;;;;;;;;;;5049410;28;20049;-66
2022/03/02 01:36:53;;;;;;;41.33;25.90;;;;;;;;;;5048936;28;20048;-66
2022/03/02 01:39:19;;;;;;;39.87;27.33;;;;;;;;;;5049314;28;20414;-66
2022/03/02 01:41:45;;;;;;;36.73;26.40;;;;;;;;;;5049128;28;20476;-66
2022/03/02 01:44:12;;;;;;;42.77;26.53;;;;;;;;;;5048824;28;20139;-66
2022/03/02 01:46:38;;;;;;;44.83;26.67;;;;;;;;;;5049086;28;20049;-66
2022/03/02 01:49:04;;;;;;;41.77;27.73;;;;;;;;;;5064355;28;20040;-66
2022/03/02 01:51:30;;;;;;;40.40;26.67;;;;;;;;;;5048873;28;20396;-66
2022/03/02 01:53:56;;;;;;;44.30;27.33;;;;;;;;;;5049190;28;20108;-66
2022/03/02 01:56:22;;;;;;;41.53;25.77;;;;;;;;;;5048745;28;20053;-66
2022/03/02 01:58:48;;;;;;;39.13;26.90;;;;;;;;;;5049401;28;20057;-66
2022/03/02 02:01:15;;;;;;;40.93;26.60;;;;;;;;;;5064472;28;20045;-66
2022/03/02 02:03:41;;;;;;;39.47;26.53;;;;;;;;;;5049191;28;20053;-66
2022/03/02 02:06:08;;;;;;;43.77;26.70;;;;;;;;;;5048918;28;20507;-66
2022/03/02 02:08:34;;;;;;;41.93;26.37;;;;;;;;;;5048391;28;20087;-66
2022/03/02 02:11:00;;;;;;;43.73;26.97;;;;;;;;;;5048471;28;20136;-66
2022/03/02 02:13:27;;;;;;;42.50;26.50;;;;;;;;;;5048607;28;20606;-66
2022/03/02 02:15:56;;;;;;;40.23;26.20;;;;;;;;;;5048770;28;20060;-66
2022/03/02 02:18:23;;;;;;;43.30;27.37;;;;;;;;;;5048523;28;20044;-66
2022/03/02 02:20:49;;;;;;;42.90;26.53;;;;;;;;;;5048373;28;20040;-66
2022/03/02 02:23:15;;;;;;;43.50;27.60;;;;;;;;;;5048476;28;20057;-66
2022/03/02 02:25:42;;;;;;;38.73;25.93;;;;;;;;;;5048817;28;20538;-66
2022/03/02 02:28:10;;;;;;;42.53;26.63;;;;;;;;;;5047084;28;20053;-66
2022/03/02 02:30:36;;;;;;;41.63;26.20;;;;;;;;;;5048589;28;20438;-66
2022/03/02 02:33:03;;;;;;;40.27;26.50;;;;;;;;;;5048298;28;20521;-66
2022/03/02 02:35:29;;;;;;;39.83;25.13;;;;;;;;;;5048287;28;20045;-66
2022/03/02 02:37:55;;;;;;;38.97;25.37;;;;;;;;;;5048192;28;20048;-66
2022/03/02 02:40:22;;;;;;;43.93;28.00;;;;;;;;;;5048066;28;20047;-66
2022/03/02 02:42:48;;;;;;;39.97;26.17;;;;;;;;;;5049798;28;20499;-66
2022/03/02 02:45:17;;;;;;;43.77;27.43;;;;;;;;;;5052332;28;20507;-66
2022/03/02 02:47:43;;;;;;;43.23;26.57;;;;;;;;;;5051459;28;20075;-66
2022/03/02 02:50:19;;;;;;;41.33;27.27;;;;;;;;;;5051474;28;20103;-66
2022/03/02 02:52:45;;;;;;;41.83;26.13;;;;;;;;;;5052349;28;20040;-66
2022/03/02 02:55:13;;;;;;;42.87;27.27;;;;;;;;;;5052103;28;20037;-66
2022/03/02 02:57:39;;;;;;;41.10;26.53;;;;;;;;;;5052043;28;20049;-66
2022/03/02 03:00:08;;;;;;;44.30;26.43;;;;;;;;;;5052348;28;20140;-66
2022/03/02 03:02:34;;;;;;;42.27;27.07;;;;;;;;;;5052056;28;20048;-66
2022/03/02 03:05:00;;;;;;;42.70;26.33;;;;;;;;;;5051931;28;20130;-66
2022/03/02 03:07:26;;;;;;;40.93;26.13;;;;;;;;;;5052220;28;20075;-66
2022/03/02 03:09:52;;;;;;;44.90;27.80;;;;;;;;;;5051787;28;20059;-66
2022/03/02 03:12:18;;;;;;;45.53;27.97;;;;;;;;;;5052557;28;20077;-66
2022/03/02 03:14:44;;;;;;;43.13;26.00;;;;;;;;;;5051877;28;20513;-66
2022/03/02 03:17:11;;;;;;;46.13;27.80;;;;;;;;;;5051639;28;20044;-66
2022/03/02 03:19:37;;;;;;;46.93;27.00;;;;;;;;;;5051537;28;20124;-66
2022/03/02 03:22:07;;;;;;;43.07;28.10;;;;;;;;;;5051550;28;20500;-66
2022/03/02 03:24:33;;;;;;;42.63;27.93;;;;;;;;;;5051673;28;20159;-66
2022/03/02 03:26:59;;;;;;;44.03;27.10;;;;;;;;;;5051735;28;20045;-66
2022/03/02 03:29:25;;;;;;;44.30;28.73;;;;;;;;;;5048214;28;20041;-66
2022/03/02 03:31:51;;;;;;;43.37;26.93;;;;;;;;;;5050622;28;20081;-66
2022/03/02 03:34:18;;;;;;;55.10;29.57;;;;;;;;;;5050299;28;20036;-66
2022/03/02 03:36:44;;;;;;;42.97;26.83;;;;;;;;;;5049703;28;20052;-66
2022/03/02 03:39:10;;;;;;;42.47;27.37;;;;;;;;;;5051612;28;20037;-66
2022/03/02 03:41:36;;;;;;;44.90;27.27;;;;;;;;;;5051542;28;20041;-66
2022/03/02 03:44:02;;;;;;;42.97;26.53;;;;;;;;;;5051560;28;20194;-66
2022/03/02 03:46:28;;;;;;;43.27;26.60;;;;;;;;;;5051783;28;20049;-66
2022/03/02 03:48:54;;;;;;;42.00;26.90;;;;;;;;;;5050920;28;20049;-66
2022/03/02 03:51:20;;;;;;;45.43;28.57;;;;;;;;;;5050141;28;20098;-66
2022/03/02 03:53:46;;;;;;;43.07;27.77;;;;;;;;;;5050721;28;20517;-66
2022/03/02 03:56:12;;;;;;;45.60;27.30;;;;;;;;;;5051341;28;20041;-66
2022/03/02 03:58:39;;;;;;;46.87;28.43;;;;;;;;;;5051299;28;20056;-66
2022/03/02 04:01:05;;;;;;;45.87;28.43;;;;;;;;;;5040131;28;20046;-66
2022/03/02 04:03:32;;;;;;;48.30;27.70;;;;;;;;;;5031504;28;20049;-66
2022/03/02 04:05:58;;;;;;;47.73;27.60;;;;;;;;;;5031208;28;20056;-66
2022/03/02 04:08:25;;;;;;;47.80;28.77;;;;;;;;;;5031418;28;20503;-66
2022/03/02 04:10:51;;;;;;;50.70;28.87;;;;;;;;;;5030961;28;20134;-66
2022/03/02 04:13:17;;;;;;;41.20;26.20;;;;;;;;;;5038340;28;20037;-66
2022/03/02 04:15:43;;;;;;;47.17;28.83;;;;;;;;;;5038687;28;20091;-66
2022/03/02 04:18:10;;;;;;;47.03;28.77;;;;;;;;;;5044314;28;20052;-66
2022/03/02 04:20:36;;;;;;;47.63;29.87;;;;;;;;;;5048791;28;20041;-66
2022/03/02 04:23:02;;;;;;;49.30;29.43;;;;;;;;;;5050341;28;20052;-66
2022/03/02 04:25:29;;;;;;;45.47;29.90;;;;;;;;;;5050528;28;20043;-66
2022/03/02 04:27:55;;;;;;;48.80;28.93;;;;;;;;;;5050477;28;20052;-66
2022/03/02 04:30:21;;;;;;;48.13;28.80;;;;;;;;;;5050046;28;20057;-66
2022/03/02 04:32:47;;;;;;;49.43;30.13;;;;;;;;;;5050271;28;20094;-66
2022/03/02 04:35:13;;;;;;;49.27;30.37;;;;;;;;;;5050209;28;20044;-66
2022/03/02 04:37:40;;;;;;;56.73;31.60;;;;;;;;;;5065040;28;21070;-66
2022/03/02 04:40:07;;;;;;;45.37;28.37;;;;;;;;;;5049815;28;20045;-66
2022/03/02 04:42:33;;;;;;;47.67;28.93;;;;;;;;;;5050400;28;20048;-66
2022/03/02 04:44:59;;;;;;;48.53;29.90;;;;;;;;;;5050164;28;20507;-66
2022/03/02 04:47:25;;;;;;;49.97;31.20;;;;;;;;;;5050123;28;20053;-66
2022/03/02 04:49:51;;;;;;;52.13;30.83;;;;;;;;;;5050348;28;20127;-66
2022/03/02 04:52:18;;;;;;;50.37;30.43;;;;;;;;;;5050430;28;20048;-66
2022/03/02 04:57:29;;;;;;;52.63;30.47;;;;;;;;;;5050186;28;20487;-66
2022/03/02 04:59:55;;;;;;;49.23;29.00;;;;;;;;;;5049896;28;20132;-66
2022/03/02 05:02:21;;;;;;;49.93;31.23;;;;;;;;;;5049703;28;20124;-66
2022/03/02 05:04:47;;;;;;;46.57;28.80;;;;;;;;;;5049348;28;20052;-66
2022/03/02 05:07:13;;;;;;;49.13;32.17;;;;;;;;;;5049634;28;20056;-66
2022/03/02 05:09:39;;;;;;;52.80;31.37;;;;;;;;;;5049709;28;20434;-66
2022/03/02 05:12:05;;;;;;;51.23;31.20;;;;;;;;;;5049808;28;20053;-66
2022/03/02 05:14:32;;;;;;;53.53;30.60;;;;;;;;;;5049589;28;20049;-66
2022/03/02 05:16:58;;;;;;;54.53;31.40;;;;;;;;;;5049457;28;20155;-66
2022/03/02 05:19:24;;;;;;;57.57;32.97;;;;;;;;;;5049358;28;20055;-66
2022/03/02 05:21:50;;;;;;;54.20;30.77;;;;;;;;;;5049689;28;20095;-66
2022/03/02 05:24:16;;;;;;;56.07;33.33;;;;;;;;;;5049347;28;20709;-66
2022/03/02 05:26:42;;;;;;;54.83;30.93;;;;;;;;;;5049565;28;20045;-66
2022/03/02 05:29:08;;;;;;;53.77;32.17;;;;;;;;;;5049706;28;20044;-66
2022/03/02 05:31:34;;;;;;;53.33;32.57;;;;;;;;;;5047493;28;20045;-66
2022/03/02 05:34:01;;;;;;;53.87;30.87;;;;;;;;;;5048882;28;20430;-66
2022/03/02 05:36:27;;;;;;;51.77;30.00;;;;;;;;;;5049204;28;20040;-66
2022/03/02 05:38:54;;;;;;;53.43;30.20;;;;;;;;;;5049272;28;20064;-66
2022/03/02 05:41:20;;;;;;;52.40;31.13;;;;;;;;;;5049182;28;20045;-66
2022/03/02 05:43:46;;;;;;;55.60;32.30;;;;;;;;;;5048901;28;20608;-66
2022/03/02 05:46:12;;;;;;;55.90;31.93;;;;;;;;;;5049371;28;20095;-66
2022/03/02 05:48:38;;;;;;;58.07;32.13;;;;;;;;;;5048993;28;20048;-66
2022/03/02 05:51:05;;;;;;;54.17;32.90;;;;;;;;;;5048565;28;20559;-66
2022/03/02 05:53:31;;;;;;;54.97;31.87;;;;;;;;;;5048588;28;20073;-66
2022/03/02 05:55:57;;;;;;;54.63;32.57;;;;;;;;;;5048577;28;20102;-66
2022/03/02 05:58:23;;;;;;;54.67;33.53;;;;;;;;;;5048675;28;20056;-66
2022/03/02 06:00:49;;;;;;;61.27;35.10;;;;;;;;;;5049011;28;20090;-66
2022/03/02 06:03:15;;;;;;;57.50;32.70;;;;;;;;;;5048502;28;20407;-66
2022/03/02 06:05:42;;;;;;;59.33;34.27;;;;;;;;;;5049134;28;20060;-66
2022/03/02 06:08:09;;;;;;;61.17;34.60;;;;;;;;;;5048103;28;20782;-66
2022/03/02 06:10:36;;;;;;;61.17;34.13;;;;;;;;;;5049165;28;20041;-66
2022/03/02 06:13:02;;;;;;;59.20;34.43;;;;;;;;;;5048251;28;20474;-66
2022/03/02 06:15:30;;;;;;;57.50;33.30;;;;;;;;;;5048573;28;20057;-66
2022/03/02 06:17:56;;;;;;;55.83;34.93;;;;;;;;;;5048688;28;20049;-66
2022/03/02 06:20:22;;;;;;;58.23;33.80;;;;;;;;;;5048402;28;20411;-66
2022/03/02 06:22:49;;;;;;;55.97;32.93;;;;;;;;;;5048416;28;20079;-66
2022/03/02 06:25:15;;;;;;;55.20;32.93;;;;;;;;;;5047582;28;20041;-66
2022/03/02 06:27:41;;;;;;;53.20;32.17;;;;;;;;;;5048473;28;20079;-66
2022/03/02 06:30:08;;;;;;;59.83;33.10;;;;;;;;;;5047838;28;20056;-65
2022/03/02 06:32:35;;;;;;;59.43;33.00;;;;;;;;;;5048395;28;20060;-66
2022/03/02 06:35:01;;;;;;;64.90;35.67;;;;;;;;;;5039517;28;20099;-66
2022/03/02 06:37:27;;;;;;;56.60;33.03;;;;;;;;;;5028237;28;20530;-66
2022/03/02 06:39:54;;;;;;;62.17;35.70;;;;;;;;;;5028544;28;20053;-66
2022/03/02 06:42:24;;;;;;;58.73;33.87;;;;;;;;;;5028579;28;20748;-66
2022/03/02 06:44:50;;;;;;;57.77;33.47;;;;;;;;;;5028264;28;20049;-66
2022/03/02 06:47:18;;;;;;;60.27;34.53;;;;;;;;;;5044135;28;20396;-66
2022/03/02 06:50:04;;;;;;;55.00;33.40;;;;;;;;;;5047805;28;20509;-66
2022/03/02 06:52:35;;;;;;;56.30;33.67;;;;;;;;;;5047610;28;20049;-66
2022/03/02 06:55:03;;;;;;;56.97;32.17;;;;;;;;;;5047579;28;20044;-65
2022/03/02 06:57:29;;;;;;;55.83;35.07;;;;;;;;;;5047740;28;20558;-66
2022/03/02 06:59:59;;;;;;;59.57;34.00;;;;;;;;;;5047970;28;20053;-66
2022/03/02 07:02:32;;;;;;;57.10;32.53;;;;;;;;;;5054733;28;20719;-66
2022/03/02 07:04:58;;;;;;;;;;;;;;;;;;5049114;28;20124;-66
2022/03/02 07:07:24;;;;;;;55.40;31.60;;;;;;;;;;5052889;28;20062;-66
2022/03/02 07:09:51;;;;;;;54.83;31.87;;;;;;;;;;5046958;28;20033;-66
2022/03/02 07:12:17;;;;;;;55.07;32.03;;;;;;;;;;5046937;28;20483;-66
2022/03/02 07:14:45;;;;;;;58.00;33.27;;;;;;;;;;5046943;28;20155;-66
2022/03/02 07:17:12;;;;;;;51.57;30.90;;;;;;;;;;5046808;28;20052;-66
2022/03/02 07:19:38;;;;;;;58.47;33.47;;;;;;;;;;5042118;28;20119;-66
2022/03/02 07:22:05;;;;;;;50.40;31.63;;;;;;;;;;5042482;28;20562;-66
2022/03/02 07:24:37;;;;;;;55.63;32.20;;;;;;;;;;5047243;28;20053;-66
2022/03/02 07:27:04;;;;;;;53.60;31.57;;;;;;;;;;5044115;28;20494;-67
2022/03/02 07:29:34;;;;;;;47.50;30.43;;;;;;;;;;5055923;28;20033;-66
2022/03/02 07:32:00;;;;;;;50.03;31.03;;;;;;;;;;5051411;28;20045;-66
2022/03/02 07:34:26;;;;;;;50.43;30.67;;;;;;;;;;5056294;28;20053;-66
2022/03/02 07:36:53;;;;;;;50.03;29.97;;;;;;;;;;5058276;28;20048;-66
2022/03/02 07:39:19;;;;;;;46.83;29.77;;;;;;;;;;5053911;28;20537;-66
2022/03/02 07:41:45;;;;;;;45.93;28.07;;;;;;;;;;5050481;28;20056;-66
2022/03/02 07:44:11;;;;;;;46.47;28.87;;;;;;;;;;5051272;28;20064;-66
2022/03/02 07:46:37;;;;;;;44.30;28.33;;;;;;;;;;5049917;28;20048;-66
2022/03/02 07:49:04;;;;;;;43.73;28.30;;;;;;;;;;5049060;28;20044;-66
2022/03/02 07:51:33;;;;;;;45.87;28.90;;;;;;;;;;5051335;28;20056;-67
2022/03/02 07:54:01;;;;;;;45.50;28.67;;;;;;;;;;5049821;28;20037;-66
2022/03/02 07:56:31;;;;;;;48.77;28.77;;;;;;;;;;5051130;28;20059;-66
2022/03/02 07:59:16;;;;;;;45.20;28.47;;;;;;;;;;5056588;28;20036;-66
2022/03/02 08:01:43;;;;;;;44.03;27.20;;;;;;;;;;5049535;28;20068;-66
2022/03/02 08:04:10;;;;;;;44.67;27.10;;;;;;;;;;5052133;28;20037;-66
2022/03/02 08:06:38;;;;;;;42.40;26.70;;;;;;;;;;5060843;28;20045;-66
2022/03/02 08:09:05;;;;;;;43.83;27.27;;;;;;;;;;5050740;28;20135;-66
2022/03/02 08:11:37;;;;;;;44.10;25.87;;;;;;;;;;5052066;28;20048;-66
2022/03/02 08:14:03;;;;;;;42.83;27.77;;;;;;;;;;5050972;28;20410;-66
2022/03/02 08:16:30;;;;;;;40.93;26.53;;;;;;;;;;5051075;28;20139;-66
2022/03/02 08:18:57;;;;;;;41.90;26.60;;;;;;;;;;5047838;28;20110;-66
2022/03/02 08:21:24;;;;;;;38.80;25.43;;;;;;;;;;5070589;28;20044;-66
2022/03/02 08:23:50;;;;;;;39.37;25.53;;;;;;;;;;5057250;28;20150;-66
2022/03/02 08:26:20;;;;;;;41.17;25.17;;;;;;;;;;5050517;28;20076;-66
2022/03/02 08:28:47;;;;;;;39.03;23.73;;;;;;;;;;5033391;28;20121;-66
2022/03/02 08:31:13;;;;;;;43.90;25.43;;;;;;;;;;5042449;28;20124;-66
2022/03/02 08:33:41;;;;;;;46.07;26.77;;;;;;;;;;5048618;28;20087;-66
2022/03/02 08:36:09;;;;;;;41.97;25.80;;;;;;;;;;5049294;28;20049;-66
2022/03/02 08:38:40;;;;;;;41.57;25.63;;;;;;;;;;5050165;28;20079;-66
2022/03/02 08:41:07;;;;;;;39.77;26.43;;;;;;;;;;5048292;28;20041;-66
2022/03/02 08:43:35;;;;;;;38.90;23.67;;;;;;;;;;5049848;28;20052;-66
2022/03/02 08:46:01;;;;;;;47.20;27.67;;;;;;;;;;5049295;28;20448;-66
2022/03/02 08:48:27;;;;;;;42.63;26.57;;;;;;;;;;5050279;28;20056;-66
2022/03/02 08:50:55;;;;;;;40.67;24.67;;;;;;;;;;5048782;28;20045;-66
2022/03/02 08:53:23;;;;;;;42.33;26.33;;;;;;;;;;5049645;28;20418;-67
2022/03/02 08:55:49;;;;;;;39.73;24.90;;;;;;;;;;5050051;28;20045;-66
2022/03/02 08:58:15;;;;;;;43.90;27.07;;;;;;;;;;5049078;28;20045;-66
2022/03/02 09:00:41;;;;;;;43.00;25.00;;;;;;;;;;5049824;28;20041;-66
2022/03/02 09:03:07;;;;;;;42.17;25.07;;;;;;;;;;5049015;28;20049;-66
2022/03/02 09:05:34;;;;;;;45.63;26.47;;;;;;;;;;5049729;28;20051;-66
2022/03/02 09:08:00;;;;;;;39.47;24.90;;;;;;;;;;5048436;28;20136;-66
2022/03/02 09:10:26;;;;;;;39.33;23.87;;;;;;;;;;5048464;28;20063;-66
2022/03/02 09:12:52;;;;;;;40.97;25.67;;;;;;;;;;5049057;28;20052;-66
2022/03/02 09:15:18;;;;;;;38.53;24.77;;;;;;;;;;5048868;28;20124;-66
2022/03/02 09:17:45;;;;;;;40.90;24.80;;;;;;;;;;5048773;28;20044;-66
2022/03/02 09:20:11;;;;;;;34.83;22.37;;;;;;;;;;5041767;28;20505;-66
2022/03/02 09:22:39;;;;;;;41.47;25.40;;;;;;;;;;5041813;28;20495;-66
2022/03/02 09:25:06;;;;;;;37.83;24.17;;;;;;;;;;5040478;28;20037;-66
2022/03/02 09:27:33;;;;;;;36.00;24.40;;;;;;;;;;5041169;28;20045;-66
2022/03/02 09:30:00;;;;;;;37.53;22.77;;;;;;;;;;5049246;28;20045;-66
2022/03/02 09:32:27;;;;;;;35.20;22.33;;;;;;;;;;5048226;28;20620;-66
2022/03/02 09:35:00;;;;;;;37.80;23.80;;;;;;;;;;5049313;28;20037;-66
2022/03/02 09:37:27;;;;;;;30.80;20.70;;;;;;;;;;5047552;28;20083;-66
2022/03/02 09:39:54;;;;;;;31.90;20.30;;;;;;;;;;5047693;28;20403;-66
2022/03/02 09:42:23;;;;;;;33.90;20.87;;;;;;;;;;5048348;28;20107;-66
2022/03/02 09:44:59;;;;;;;37.90;19.60;;;;;;;;;;5048788;28;20053;-66
2022/03/02 09:47:26;;;;;;;30.67;19.43;;;;;;;;;;5048298;28;20068;-66
2022/03/02 09:49:56;;;;;;;26.73;17.13;;;;;;;;;;5049047;28;20052;-67
2022/03/02 09:52:22;;;;;;;29.33;17.30;;;;;;;;;;5048112;28;20049;-67
2022/03/02 09:54:53;;;;;;;21.00;14.93;;;;;;;;;;5047845;28;20126;-67
2022/03/02 09:57:20;;;;;;;24.13;15.67;;;;;;;;;;5048012;28;20056;-67
2022/03/02 09:59:53;;;;;;;22.53;15.07;;;;;;;;;;5048704;28;20041;-66
2022/03/02 10:02:31;;;;;;;21.55;15.32;;;;;;;;;;5035124;28;20080;-66
2022/03/02 10:04:59;;;;;;;25.60;16.90;;;;;;;;;;5032213;28;20041;-66
2022/03/02 10:07:29;;;;;;;24.17;15.27;;;;;;;;;;5046004;28;20053;-66
2022/03/02 10:10:07;;;;;;;27.20;15.70;;;;;;;;;;5048892;28;20450;-67
2022/03/02 10:12:33;;;;;;;26.47;16.93;;;;;;;;;;5047931;28;20040;-67
2022/03/02 10:15:00;;;;;;;24.87;15.90;;;;;;;;;;5048761;28;20064;-64
2022/03/02 10:17:32;;;;;;;25.33;16.13;;;;;;;;;;5047799;28;20578;-64
2022/03/02 10:20:00;;;;;;;24.73;16.33;;;;;;;;;;5048563;28;20181;-64
2022/03/02 10:22:41;;;;;;;26.33;16.00;;;;;;;;;;5048180;28;20495;-64
2022/03/02 10:25:08;;;;;;;22.53;14.93;;;;;;;;;;5048168;28;20045;-64
2022/03/02 10:27:54;;;;;;;23.17;14.27;;;;;;;;;;5048316;28;20368;-64
2022/03/02 10:30:20;;;;;;;21.60;14.87;;;;;;;;;;5048504;28;20068;-64
2022/03/02 10:32:49;;;;;;;23.23;14.20;;;;;;;;;;5049362;28;20059;-64
2022/03/02 10:35:20;;;;;;;23.93;14.50;;;;;;;;;;5048390;28;20438;-64
2022/03/02 10:37:53;;;;;;;20.57;14.67;;;;;;;;;;5051450;28;20112;-64
2022/03/02 10:40:24;;;;;;;22.98;13.63;;;;;;;;;;5048433;28;20537;-64
2022/03/02 10:42:57;;;;;;;19.20;13.83;;;;;;;;;;5048417;28;20446;-64
2022/03/02 10:45:23;;;;;;;22.95;14.27;;;;;;;;;;5047917;28;20116;-64
2022/03/02 10:47:49;;;;;;;20.97;14.50;;;;;;;;;;5047968;28;20155;-64
2022/03/02 10:50:16;;;;;;;21.77;14.40;;;;;;;;;;5048057;28;20451;-64
2022/03/02 10:52:42;;;;;;;23.17;13.97;;;;;;;;;;5047983;28;20139;-64
2022/03/02 10:55:09;;;;;;;20.93;14.80;;;;;;;;;;5047930;28;20884;-64
2022/03/02 10:57:35;;;;;;;19.27;13.43;;;;;;;;;;5047224;28;20048;-64
2022/03/02 11:00:05;;;;;;;22.70;14.47;;;;;;;;;;5044339;28;20052;-64
2022/03/02 11:02:33;;;;;;;19.87;14.00;;;;;;;;;;5047180;28;20049;-65
2022/03/02 11:05:02;;;;;;;22.13;13.67;;;;;;;;;;5048638;28;20037;-65
2022/03/02 11:07:29;;;;;;;20.47;13.53;;;;;;;;;;5049250;28;20495;-65
2022/03/02 11:09:55;;;;;;;19.93;14.00;;;;;;;;;;5046965;28;20041;-65
2022/03/02 11:12:21;;;;;;;21.53;14.53;;;;;;;;;;5049699;28;20051;-64
2022/03/02 11:14:59;;;;;;;18.70;14.27;;;;;;;;;;5042643;28;20094;-64
2022/03/02 11:17:26;;;;;;;18.83;13.83;;;;;;;;;;5041709;28;20507;-64
2022/03/02 11:19:53;;;;;;;21.83;14.60;;;;;;;;;;5043122;28;20101;-65
2022/03/02 11:22:20;;;;;;;26.20;14.37;;;;;;;;;;5049235;28;20041;-65
2022/03/02 11:24:47;;;;;;;18.77;13.80;;;;;;;;;;5048736;28;20063;-64
2022/03/02 11:27:30;;;;;;;20.10;14.20;;;;;;;;;;5037279;28;20048;-65
2022/03/02 11:30:08;;;;;;;21.92;15.25;;;;;;;;;;5034356;28;20053;-65
2022/03/02 11:32:35;;;;;;;19.90;14.13;;;;;;;;;;5048058;28;20044;-64
2022/03/02 11:35:03;;;;;;;21.97;15.13;;;;;;;;;;5049075;28;20449;-65
2022/03/02 11:37:31;;;;;;;21.93;15.70;;;;;;;;;;5049228;28;20068;-65
2022/03/02 11:39:58;;;;;;;19.60;14.30;;;;;;;;;;5046350;28;20048;-65
2022/03/02 11:42:28;;;;;;;19.83;14.07;;;;;;;;;;5046779;28;20124;-65
2022/03/02 11:44:55;;;;;;;23.20;15.47;;;;;;;;;;5050384;28;20049;-65
2022/03/02 11:47:23;;;;;;;20.87;15.23;;;;;;;;;;5047995;28;20045;-65
2022/03/02 11:49:53;;;;;;;18.80;14.47;;;;;;;;;;5047296;28;20048;-65
2022/03/02 11:52:22;;;;;;;19.50;14.10;;;;;;;;;;5047230;28;20041;-65
2022/03/02 11:54:48;;;;;;;20.43;15.33;;;;;;;;;;5042641;28;20045;-65
2022/03/02 11:57:18;;;;;;;20.77;15.20;;;;;;;;;;5044501;28;20051;-65
2022/03/02 11:59:44;;;;;;;22.60;15.87;;;;;;;;;;5049088;28;20411;-65
2022/03/02 12:02:17;;;;;;;21.00;14.87;;;;;;;;;;5049686;28;20132;-65
2022/03/02 12:04:43;;;;;;;;;;;;;;;;;;5046022;28;20059;-65
2022/03/02 12:07:09;;;;;;;19.80;13.90;;;;;;;;;;5046141;28;20331;-65
2022/03/02 12:09:39;;;;;;;20.20;14.80;;;;;;;;;;5040330;28;20124;-65
2022/03/02 12:12:08;;;;;;;23.07;14.63;;;;;;;;;;5048215;28;20037;-65
2022/03/02 12:14:44;;;;;;;21.70;16.10;;;;;;;;;;5042042;28;20036;-65
2022/03/02 12:17:23;;;;;;;20.50;14.17;;;;;;;;;;5044879;28;20445;-65
2022/03/02 12:19:53;;;;;;;18.37;14.07;;;;;;;;;;5050128;28;20051;-65
2022/03/02 12:22:19;;;;;;;20.40;14.17;;;;;;;;;;5049806;28;20080;-65
2022/03/02 12:24:47;;;;;;;21.97;14.47;;;;;;;;;;5049418;28;20495;-65
2022/03/02 12:27:13;;;;;;;21.13;14.90;;;;;;;;;;5048750;28;20127;-65
2022/03/02 12:29:41;;;;;;;20.83;15.23;;;;;;;;;;5049587;28;20120;-65
2022/03/02 12:32:15;;;;;;;21.07;14.37;;;;;;;;;;5047783;28;20044;-65
2022/03/02 12:34:45;;;;;;;19.23;15.27;;;;;;;;;;5049395;28;20048;-65
2022/03/02 12:37:12;;;;;;;19.87;15.17;;;;;;;;;;5047713;28;20096;-65
2022/03/02 12:39:39;;;;;;;20.73;14.57;;;;;;;;;;5049746;28;20491;-65
2022/03/02 12:42:08;;;;;;;20.87;14.80;;;;;;;;;;5048143;28;20410;-65
2022/03/02 12:44:38;;;;;;;21.83;15.30;;;;;;;;;;5043851;28;20037;-65
2022/03/02 12:47:06;;;;;;;19.10;14.73;;;;;;;;;;5049125;28;20056;-65
2022/03/02 12:49:33;;;;;;;19.37;14.77;;;;;;;;;;5049413;28;20053;-65
2022/03/02 12:52:00;;;;;;;19.30;15.70;;;;;;;;;;5048035;28;20049;-65
2022/03/02 12:54:27;;;;;;;20.53;14.83;;;;;;;;;;5046659;28;20049;-65
2022/03/02 12:56:53;;;;;;;17.53;13.27;;;;;;;;;;5048764;28;20045;-65
2022/03/02 12:59:20;;;;;;;21.77;16.00;;;;;;;;;;5049290;28;20049;-66
2022/03/02 13:01:46;;;;;;;18.60;13.43;;;;;;;;;;5048541;28;20037;-66
2022/03/02 13:04:14;;;;;;;18.80;15.00;;;;;;;;;;5047738;28;20138;-65
2022/03/02 13:06:43;;;;;;;20.20;14.87;;;;;;;;;;5048632;28;20045;-65
2022/03/02 13:09:14;;;;;;;19.07;15.17;;;;;;;;;;5046944;28;20620;-65
2022/03/02 13:11:39;;;;;;;19.47;14.87;;;;;;;;;;5049777;28;20190;-65
2022/03/02 13:14:17;;;;;;;21.07;15.57;;;;;;;;;;5046466;28;20147;-65
2022/03/02 13:16:45;;;;;;;19.33;14.40;;;;;;;;;;5030677;28;20098;-65
2022/03/02 13:19:18;;;;;;;16.30;13.40;;;;;;;;;;5033028;28;20081;-65
2022/03/02 13:21:57;;;;;;;20.70;14.68;;;;;;;;;;5048700;28;20507;-65
2022/03/02 13:24:23;;;;;;;18.90;14.97;;;;;;;;;;5049197;28;20052;-65
2022/03/02 13:26:57;;;;;;;20.47;14.53;;;;;;;;;;5047259;28;20044;-65
2022/03/02 13:29:28;;;;;;;17.10;13.70;;;;;;;;;;5049434;28;20049;-65
2022/03/02 13:31:59;;;;;;;20.37;15.37;;;;;;;;;;5048211;28;20053;-65
2022/03/02 13:34:27;;;;;;;17.93;13.60;;;;;;;;;;5048533;28;20530;-65
2022/03/02 13:36:54;;;;;;;16.87;13.90;;;;;;;;;;5048699;28;20041;-65
2022/03/02 13:39:22;;;;;;;18.57;14.53;;;;;;;;;;5049162;28;20047;-65
2022/03/02 13:41:58;;;;;;;15.23;13.47;;;;;;;;;;5048289;28;20048;-65
2022/03/02 13:44:36;;;;;;;18.00;14.20;;;;;;;;;;5047611;28;20053;-65
2022/03/02 13:47:10;;;;;;;17.53;14.10;;;;;;;;;;5028959;28;20060;-65
2022/03/02 13:49:53;;;;;;;18.27;14.17;;;;;;;;;;5032185;28;20045;-65
2022/03/02 13:52:42;;;;;;;15.52;12.43;;;;;;;;;;5046872;28;20533;-65
2022/03/02 13:55:10;;;;;;;16.10;13.67;;;;;;;;;;5048273;28;21372;-65
2022/03/02 13:57:37;;;;;;;17.07;13.80;;;;;;;;;;5047918;28;20136;-65
2022/03/02 14:00:21;;;;;;;17.43;13.63;;;;;;;;;;5048810;28;20048;-65
2022/03/02 14:02:53;;;;;;;15.30;13.00;;;;;;;;;;5048016;28;20533;-65
2022/03/02 14:05:20;;;;;;;15.80;13.13;;;;;;;;;;5048846;28;20047;-65
2022/03/02 14:07:46;;;;;;;14.60;12.10;;;;;;;;;;5046464;28;20048;-65
2022/03/02 14:10:14;;;;;;;16.13;13.30;;;;;;;;;;5034443;28;20096;-65
2022/03/02 14:12:52;;;;;;;15.03;13.20;;;;;;;;;;5028838;28;20049;-65
2022/03/02 14:15:22;;;;;;;16.23;12.60;;;;;;;;;;5040799;28;20052;-66
2022/03/02 14:17:48;;;;;;;17.20;12.90;;;;;;;;;;5047413;28;20052;-66
2022/03/02 14:20:15;;;;;;;16.47;12.80;;;;;;;;;;5048621;28;20568;-66
2022/03/02 14:22:41;;;;;;;16.30;12.50;;;;;;;;;;5047731;28;20405;-66
2022/03/02 14:25:14;;;;;;;16.57;13.23;;;;;;;;;;5047095;28;20048;-67